Time;durP1;ratioP1;P1;durP2;ratioP2;P2;SDS_P1;SDS_P2;PMS_P1;PMS_P2;Temp;Humidity;BMP_temperature;BMP_pressure;BME280_temperature;BME280_humidity;BME280_pressure;Samples;Min_cycle;Max_cycle;Signal;HPM_P1;HPM_P2
2021/12/29 00:01:52;;;;;;;9.40;8.90;;;14.20;84.70;;;;;;4962820;28;20051;-77
2021/12/29 00:04:18;;;;;;;9.82;9.38;;;14.20;84.70;;;;;;4963581;28;20472;-77
2021/12/29 00:06:44;;;;;;;9.38;8.98;;;14.20;84.70;;;;;;4964356;28;20089;-77
2021/12/29 00:09:10;;;;;;;8.98;8.57;;;14.20;84.70;;;;;;4959660;28;20024;-77
2021/12/29 00:11:39;;;;;;;10.02;9.50;;;14.30;84.80;;;;;;4969252;28;20031;-77
2021/12/29 00:14:06;;;;;;;9.13;8.73;;;14.30;84.90;;;;;;4974481;28;20043;-77
2021/12/29 00:16:35;;;;;;;8.95;8.55;;;14.40;84.90;;;;;;4970074;28;20051;-77
2021/12/29 00:19:03;;;;;;;9.02;8.63;;;14.40;85.00;;;;;;4973518;28;20031;-77
2021/12/29 00:21:29;;;;;;;9.60;9.20;;;14.40;84.90;;;;;;4959967;28;20047;-77
2021/12/29 00:23:59;;;;;;;21.50;10.52;;;14.40;85.00;;;;;;4973779;28;20061;-78
2021/12/29 00:26:25;;;;;;;9.52;9.02;;;14.40;84.90;;;;;;4963964;28;20035;-77
2021/12/29 00:28:52;;;;;;;8.95;8.55;;;14.40;84.90;;;;;;4963126;28;20054;-77
2021/12/29 00:31:18;;;;;;;10.65;9.13;;;14.50;85.00;;;;;;4972662;28;20039;-77
2021/12/29 00:33:44;;;;;;;9.70;9.20;;;14.50;85.00;;;;;;4973175;28;20050;-77
2021/12/29 00:36:10;;;;;;;9.38;8.98;;;14.50;85.00;;;;;;4959608;28;20031;-77
2021/12/29 00:38:37;;;;;;;19.23;8.32;;;14.50;85.10;;;;;;4971258;28;20046;-77
2021/12/29 00:41:03;;;;;;;10.27;9.40;;;14.50;85.10;;;;;;4972672;28;20035;-77
2021/12/29 00:43:29;;;;;;;11.70;11.07;;;14.50;85.10;;;;;;4970005;28;20031;-77
2021/12/29 00:45:55;;;;;;;8.80;8.40;;;14.50;85.10;;;;;;4970213;28;20058;-77
2021/12/29 00:48:24;;;;;;;14.05;10.65;;;14.50;85.10;;;;;;4975031;28;20038;-77
2021/12/29 00:50:50;;;;;;;9.38;8.93;;;14.50;85.20;;;;;;4971848;28;20391;-77
2021/12/29 00:53:16;;;;;;;18.05;9.65;;;14.50;85.20;;;;;;4955424;28;20057;-77
2021/12/29 00:55:42;;;;;;;9.65;9.18;;;14.50;85.30;;;;;;4969236;28;20476;-78
2021/12/29 00:58:08;;;;;;;7.85;7.47;;;14.50;85.30;;;;;;4953910;28;20055;-77
2021/12/29 01:00:37;;;;;;;8.52;8.13;;;14.50;85.30;;;;;;4974288;28;20409;-77
2021/12/29 01:03:04;;;;;;;11.68;10.80;;;14.50;85.30;;;;;;4965621;28;20051;-77
2021/12/29 01:05:30;;;;;;;20.00;9.35;;;14.60;85.40;;;;;;4973662;28;20031;-77
2021/12/29 01:07:56;;;;;;;10.70;10.10;;;14.60;85.40;;;;;;4970362;28;20408;-77
2021/12/29 01:10:22;;;;;;;12.95;9.38;;;14.60;85.40;;;;;;4970648;28;20038;-77
2021/12/29 01:12:56;;;;;;;9.95;9.50;;;14.60;85.40;;;;;;4960676;28;20046;-77
2021/12/29 01:15:27;;;;;;;10.48;9.98;;;14.60;85.40;;;;;;4957576;28;20058;-77
2021/12/29 01:17:54;;;;;;;12.88;11.48;;;14.60;85.40;;;;;;4961142;28;20062;-77
2021/12/29 01:20:21;;;;;;;10.80;10.27;;;14.60;85.50;;;;;;4973992;28;20038;-77
2021/12/29 01:22:47;;;;;;;10.63;9.30;;;14.60;85.50;;;;;;4973211;28;20035;-77
2021/12/29 01:25:14;;;;;;;10.77;10.18;;;14.60;85.40;;;;;;4968230;28;20058;-77
2021/12/29 01:27:40;;;;;;;10.70;10.20;;;14.60;85.50;;;;;;4973301;28;20027;-77
2021/12/29 01:30:10;;;;;;;10.18;9.68;;;14.60;85.50;;;;;;4958131;28;20023;-77
2021/12/29 01:32:37;;;;;;;10.48;9.98;;;14.60;85.50;;;;;;4971838;28;20038;-77
2021/12/29 01:35:05;;;;;;;9.77;9.27;;;14.70;85.60;;;;;;4963411;28;20534;-77
2021/12/29 01:37:31;;;;;;;9.68;9.27;;;14.70;85.50;;;;;;4961819;28;20054;-77
2021/12/29 01:39:57;;;;;;;11.07;10.32;;;14.70;85.60;;;;;;4973091;28;20050;-77
2021/12/29 01:42:23;;;;;;;9.90;9.40;;;14.70;85.60;;;;;;4958157;28;20043;-77
2021/12/29 01:44:49;;;;;;;10.80;10.30;;;14.70;85.60;;;;;;4973528;28;20031;-77
2021/12/29 01:47:28;;;;;;;9.45;8.95;;;14.70;85.60;;;;;;4971402;28;20042;-77
2021/12/29 01:49:55;;;;;;;10.57;10.07;;;14.70;85.60;;;;;;4961621;28;20043;-77
2021/12/29 01:52:25;;;;;;;10.60;10.10;;;14.70;85.60;;;;;;4949664;28;20026;-77
2021/12/29 01:54:51;;;;;;;10.43;9.93;;;14.70;85.60;;;;;;4969044;28;20035;-77
2021/12/29 01:57:17;;;;;;;10.48;9.98;;;14.70;85.70;;;;;;4971155;28;20477;-77
2021/12/29 01:59:43;;;;;;;10.45;9.82;;;14.70;85.70;;;;;;4967142;28;20050;-77
2021/12/29 02:02:14;;;;;;;10.77;10.07;;;14.80;85.70;;;;;;4968950;28;20053;-77
2021/12/29 02:04:41;;;;;;;11.60;10.75;;;14.80;85.80;;;;;;4951647;29;20031;-77
2021/12/29 02:07:08;;;;;;;10.57;10.07;;;14.80;85.80;;;;;;4962461;28;20388;-77
2021/12/29 02:09:34;;;;;;;10.02;9.55;;;14.80;85.80;;;;;;4956560;28;20042;-77
2021/12/29 02:12:01;;;;;;;10.95;10.45;;;14.80;85.80;;;;;;4969144;28;20031;-77
2021/12/29 02:14:27;;;;;;;10.75;10.25;;;14.80;85.80;;;;;;4961077;28;20039;-77
2021/12/29 02:16:53;;;;;;;10.55;10.05;;;14.80;85.80;;;;;;4966786;28;20035;-77
2021/12/29 02:19:19;;;;;;;10.95;10.45;;;14.80;85.80;;;;;;4970391;28;20043;-77
2021/12/29 02:21:54;;;;;;;10.32;9.82;;;14.80;85.80;;;;;;4957437;28;20042;-77
2021/12/29 02:24:23;;;;;;;10.75;10.25;;;14.80;85.90;;;;;;4965771;28;20027;-77
2021/12/29 02:26:49;;;;;;;10.45;9.95;;;14.80;85.90;;;;;;4958326;28;20031;-77
2021/12/29 02:29:17;;;;;;;10.73;10.23;;;14.80;85.90;;;;;;4964472;28;20030;-77
2021/12/29 02:31:43;;;;;;;10.65;10.15;;;14.80;85.90;;;;;;4963765;28;20501;-78
2021/12/29 02:34:10;;;;;;;11.50;11.00;;;14.80;85.90;;;;;;4962294;28;20039;-77
2021/12/29 02:36:43;;;;;;;10.95;10.45;;;14.80;85.90;;;;;;4955013;28;20035;-77
2021/12/29 02:39:15;;;;;;;10.18;9.68;;;14.80;86.00;;;;;;4966427;28;20046;-77
2021/12/29 02:41:43;;;;;;;10.25;9.73;;;14.80;86.00;;;;;;4956375;28;20050;-77
2021/12/29 02:44:15;;;;;;;10.50;10.00;;;14.80;86.00;;;;;;4954897;28;20050;-77
2021/12/29 02:46:41;;;;;;;10.43;9.93;;;14.80;86.00;;;;;;4964202;28;20035;-77
2021/12/29 02:49:08;;;;;;;10.95;10.45;;;14.80;86.00;;;;;;4971341;28;20027;-77
2021/12/29 02:51:34;;;;;;;9.65;9.25;;;14.80;86.00;;;;;;4953458;28;20042;-77
2021/12/29 02:54:01;;;;;;;10.40;9.90;;;14.80;86.00;;;;;;4971758;28;20034;-77
2021/12/29 02:56:27;;;;;;;9.95;9.50;;;14.80;86.10;;;;;;4967754;28;20046;-77
2021/12/29 02:58:54;;;;;;;11.07;10.57;;;14.90;86.10;;;;;;4964756;28;20034;-77
2021/12/29 03:01:20;;;;;;;11.45;10.95;;;14.80;86.10;;;;;;4960622;28;20057;-77
2021/12/29 03:03:46;;;;;;;11.60;11.10;;;14.90;86.10;;;;;;4966433;28;20115;-77
2021/12/29 03:06:13;;;;;;;10.52;10.02;;;14.90;86.10;;;;;;4965008;28;20031;-77
2021/12/29 03:08:39;;;;;;;11.05;10.55;;;14.90;86.20;;;;;;4969587;28;20058;-77
2021/12/29 03:11:06;;;;;;;10.93;10.43;;;14.90;86.20;;;;;;4969079;28;20394;-77
2021/12/29 03:13:34;;;;;;;10.65;10.15;;;14.90;86.20;;;;;;4966604;28;20030;-77
2021/12/29 03:16:00;;;;;;;11.13;10.63;;;14.80;86.20;;;;;;4966187;28;20049;-78
2021/12/29 03:18:26;;;;;;;10.93;10.43;;;14.90;86.20;;;;;;4966529;28;20050;-77
2021/12/29 03:20:53;;;;;;;11.02;10.52;;;14.90;86.20;;;;;;4970589;28;20054;-77
2021/12/29 03:23:19;;;;;;;11.23;10.73;;;14.90;86.20;;;;;;4966207;28;20058;-77
2021/12/29 03:25:48;;;;;;;10.65;10.15;;;14.90;86.20;;;;;;4968010;28;20394;-77
2021/12/29 03:28:15;;;;;;;11.05;10.45;;;14.90;86.20;;;;;;4967243;28;20042;-77
2021/12/29 03:30:43;;;;;;;11.27;10.68;;;14.90;86.30;;;;;;4966363;28;20046;-77
2021/12/29 03:33:09;;;;;;;11.18;10.68;;;14.90;86.30;;;;;;4967851;28;20465;-77
2021/12/29 03:35:38;;;;;;;10.45;9.95;;;14.90;86.30;;;;;;4961639;28;20057;-77
2021/12/29 03:38:06;;;;;;;10.70;10.20;;;14.90;86.30;;;;;;4967530;28;20027;-76
2021/12/29 03:40:35;;;;;;;11.25;10.75;;;14.90;86.30;;;;;;4940215;28;20042;-77
2021/12/29 03:43:02;;;;;;;10.07;9.57;;;14.90;86.30;;;;;;4970267;28;20058;-77
2021/12/29 03:45:28;;;;;;;11.02;10.52;;;14.90;86.30;;;;;;4954811;28;20042;-77
2021/12/29 03:47:54;;;;;;;11.30;10.80;;;15.00;86.40;;;;;;4969516;28;20027;-77
2021/12/29 03:50:21;;;;;;;11.95;11.40;;;14.90;86.30;;;;;;4960412;28;20047;-77
2021/12/29 03:52:47;;;;;;;11.05;10.55;;;15.00;86.40;;;;;;4968823;28;20384;-77
2021/12/29 03:55:13;;;;;;;11.90;11.38;;;15.00;86.40;;;;;;4975731;28;20485;-76
2021/12/29 03:57:39;;;;;;;11.77;11.27;;;15.00;86.40;;;;;;4972753;28;20031;-76
2021/12/29 04:00:08;;;;;;;10.85;10.35;;;15.00;86.40;;;;;;4974015;28;20046;-77
2021/12/29 04:02:34;;;;;;;11.38;10.88;;;15.00;86.50;;;;;;4957273;28;20050;-77
2021/12/29 04:05:01;;;;;;;10.85;10.35;;;15.00;86.40;;;;;;4966790;28;20039;-77
2021/12/29 04:07:28;;;;;;;11.27;10.77;;;15.00;86.40;;;;;;4965384;28;20035;-77
2021/12/29 04:09:54;;;;;;;11.85;11.35;;;15.00;86.50;;;;;;4975593;28;20023;-77
2021/12/29 04:12:20;;;;;;;11.77;11.27;;;15.00;86.40;;;;;;4959802;28;20039;-77
2021/12/29 04:14:46;;;;;;;11.70;11.20;;;15.00;86.50;;;;;;4972866;28;20030;-77
2021/12/29 04:17:13;;;;;;;11.27;10.77;;;15.00;86.50;;;;;;4974913;28;20039;-76
2021/12/29 04:22:24;;;;;;;11.40;10.90;;;15.00;86.50;;;;;;4971248;28;20050;-77
2021/12/29 04:24:50;;;;;;;11.73;11.23;;;15.00;86.50;;;;;;4963506;28;20043;-77
2021/12/29 04:27:16;;;;;;;11.27;10.77;;;15.00;86.60;;;;;;4958429;28;20042;-77
2021/12/29 04:29:42;;;;;;;12.18;11.60;;;15.00;86.60;;;;;;4959538;28;20047;-76
2021/12/29 04:32:08;;;;;;;11.65;11.15;;;15.00;86.60;;;;;;4968143;28;20415;-77
2021/12/29 04:34:34;;;;;;;12.02;11.48;;;15.00;86.60;;;;;;4969940;28;20032;-77
2021/12/29 04:37:00;;;;;;;11.15;10.65;;;15.00;86.60;;;;;;4962612;28;20030;-77
2021/12/29 04:39:26;;;;;;;11.85;11.35;;;15.00;86.60;;;;;;4967772;28;20078;-77
2021/12/29 04:41:54;;;;;;;11.25;10.75;;;15.00;86.60;;;;;;4960388;28;20051;-77
2021/12/29 04:44:20;;;;;;;11.45;10.95;;;15.00;86.60;;;;;;4963002;28;20039;-77
2021/12/29 04:46:47;;;;;;;10.70;10.20;;;15.00;86.60;;;;;;4950782;28;20038;-77
2021/12/29 04:49:14;;;;;;;11.90;11.40;;;15.00;86.70;;;;;;4969796;28;20495;-77
2021/12/29 04:51:48;;;;;;;11.52;11.02;;;15.00;86.70;;;;;;4959752;28;20053;-77
2021/12/29 04:54:14;;;;;;;11.95;11.43;;;15.00;87.50;;;;;;4940802;28;20066;-77
2021/12/29 04:56:40;;;;;;;11.95;11.43;;;15.00;86.70;;;;;;4958638;28;20043;-77
2021/12/29 04:59:06;;;;;;;11.30;10.80;;;15.00;86.70;;;;;;4965913;28;20038;-76
2021/12/29 05:01:33;;;;;;;11.55;11.05;;;15.00;86.70;;;;;;4967284;28;20038;-77
2021/12/29 05:03:59;;;;;;;11.80;11.30;;;15.00;86.70;;;;;;4961609;28;20485;-77
2021/12/29 05:09:09;;;;;;;11.20;10.70;;;15.00;86.70;;;;;;4972654;28;20075;-77
2021/12/29 05:11:35;;;;;;;11.65;11.15;;;15.00;86.70;;;;;;4962739;28;20488;-77
2021/12/29 05:14:02;;;;;;;11.38;10.88;;;15.00;86.70;;;;;;4971890;28;20046;-77
2021/12/29 05:16:28;;;;;;;11.85;11.25;;;15.00;86.70;;;;;;4938311;28;20047;-77
2021/12/29 05:18:56;;;;;;;12.45;11.85;;;15.00;86.70;;;;;;4971494;28;20023;-77
2021/12/29 05:21:22;;;;;;;10.95;10.45;;;15.00;86.80;;;;;;4974299;28;20031;-77
2021/12/29 05:23:48;;;;;;;11.20;10.70;;;15.00;86.80;;;;;;4960733;28;20038;-77
2021/12/29 05:26:14;;;;;;;12.10;11.55;;;15.00;86.60;;;;;;4947230;29;20515;-77
2021/12/29 05:28:40;;;;;;;12.43;11.82;;;15.00;86.80;;;;;;4963085;28;20035;-77
2021/12/29 05:31:06;;;;;;;11.45;10.95;;;15.00;87.60;;;;;;4969850;28;20039;-77
2021/12/29 05:33:32;;;;;;;11.93;11.40;;;15.00;86.80;;;;;;4958070;28;20050;-77
2021/12/29 05:35:59;;;;;;;12.75;12.15;;;15.00;86.80;;;;;;4972621;28;20468;-77
2021/12/29 05:38:25;;;;;;;11.77;11.27;;;15.00;86.90;;;;;;4965490;28;20050;-77
2021/12/29 05:40:52;;;;;;;12.15;11.60;;;15.00;86.90;;;;;;4967451;28;20039;-77
2021/12/29 05:43:18;;;;;;;12.43;11.82;;;15.00;86.90;;;;;;4962786;28;20039;-77
2021/12/29 05:45:44;;;;;;;11.40;10.90;;;15.00;87.00;;;;;;4955480;28;20030;-77
2021/12/29 05:48:11;;;;;;;11.98;11.45;;;15.00;87.00;;;;;;4957524;28;20042;-77
2021/12/29 05:50:37;;;;;;;12.35;11.75;;;15.00;87.00;;;;;;4972772;28;20019;-77
2021/12/29 05:53:03;;;;;;;11.57;11.07;;;15.00;87.00;;;;;;4971736;28;20030;-77
2021/12/29 05:55:29;;;;;;;11.73;11.23;;;15.00;87.00;;;;;;4969014;28;20484;-77
2021/12/29 05:57:56;;;;;;;12.48;11.88;;;15.00;87.00;;;;;;4967101;28;20034;-77
2021/12/29 06:00:23;;;;;;;12.55;11.95;;;15.00;87.00;;;;;;4940329;28;20042;-77
2021/12/29 06:02:49;;;;;;;12.88;12.27;;;15.00;87.00;;;;;;4971113;28;20086;-77
2021/12/29 06:05:15;;;;;;;12.63;12.02;;;15.00;87.00;;;;;;4955791;28;20050;-78
2021/12/29 06:07:41;;;;;;;11.60;11.10;;;15.10;87.10;;;;;;4969603;28;20027;-78
2021/12/29 06:10:08;;;;;;;11.65;11.15;;;15.10;87.10;;;;;;4970863;28;20035;-79
2021/12/29 06:12:38;;;;;;;11.93;11.43;;;15.10;87.10;;;;;;4961483;28;20499;-79
2021/12/29 06:15:04;;;;;;;11.95;11.43;;;15.10;87.10;;;;;;4956184;28;20039;-78
2021/12/29 06:17:30;;;;;;;11.55;11.05;;;15.10;87.10;;;;;;4955052;28;20030;-80
2021/12/29 06:19:56;;;;;;;11.43;10.93;;;15.10;87.10;;;;;;4946389;28;20495;-78
2021/12/29 06:22:23;;;;;;;12.32;11.73;;;15.10;87.10;;;;;;4966928;28;20047;-78
2021/12/29 06:24:52;;;;;;;12.57;11.98;;;15.10;87.10;;;;;;4961145;28;20031;-78
2021/12/29 06:27:20;;;;;;;12.65;12.05;;;15.10;87.10;;;;;;4970327;28;20030;-78
2021/12/29 06:29:46;;;;;;;12.13;11.57;;;15.10;87.10;;;;;;4973718;28;20037;-79
2021/12/29 06:32:12;;;;;;;12.43;11.82;;;15.20;87.20;;;;;;4969060;28;20035;-79
2021/12/29 06:34:38;;;;;;;12.05;11.50;;;15.20;87.20;;;;;;4970285;28;20033;-78
2021/12/29 06:37:08;;;;;;;11.45;10.95;;;15.20;87.20;;;;;;4965952;28;20038;-78
2021/12/29 06:39:41;;;;;;;12.68;12.07;;;15.20;87.20;;;;;;4969096;28;20059;-78
2021/12/29 06:42:08;;;;;;;11.63;11.13;;;15.20;87.90;;;;;;4954542;28;20038;-78
2021/12/29 06:44:34;;;;;;;11.57;11.07;;;15.20;87.10;;;;;;4970969;28;20110;-78
2021/12/29 06:47:00;;;;;;;12.82;12.23;;;15.20;87.10;;;;;;4948137;28;20497;-79
2021/12/29 06:49:26;;;;;;;12.77;12.18;;;15.20;87.10;;;;;;4962098;28;20502;-79
2021/12/29 06:51:52;;;;;;;12.68;12.07;;;15.20;87.10;;;;;;4970060;28;20035;-78
2021/12/29 06:54:18;;;;;;;13.52;12.93;;;15.20;87.10;;;;;;4970823;28;20031;-78
2021/12/29 06:56:44;;;;;;;13.73;13.10;;;15.20;87.10;;;;;;4970783;28;20407;-78
2021/12/29 06:59:10;;;;;;;12.50;11.90;;;15.30;87.20;;;;;;4967672;28;20035;-78
2021/12/29 07:01:36;;;;;;;12.88;12.27;;;15.30;87.10;;;;;;4966062;28;20048;-78
2021/12/29 07:04:03;;;;;;;14.20;13.50;;;15.30;87.20;;;;;;4968715;28;20472;-78
2021/12/29 07:06:29;;;;;;;12.93;12.32;;;15.30;87.10;;;;;;4968637;28;20030;-78
2021/12/29 07:08:55;;;;;;;13.20;12.60;;;15.30;87.10;;;;;;4968443;28;20031;-77
2021/12/29 07:11:22;;;;;;;12.63;12.02;;;15.30;87.10;;;;;;4966312;28;20053;-79
2021/12/29 07:13:49;;;;;;;13.10;12.50;;;15.30;87.10;;;;;;4965921;28;20500;-78
2021/12/29 07:16:15;;;;;;;14.23;12.93;;;15.30;87.10;;;;;;4950382;28;20046;-78
2021/12/29 07:18:41;;;;;;;11.93;11.43;;;15.30;87.10;;;;;;4968994;28;20026;-78
2021/12/29 07:21:07;;;;;;;11.65;11.15;;;15.30;87.10;;;;;;4966026;28;20035;-78
2021/12/29 07:23:33;;;;;;;12.60;12.00;;;15.30;87.10;;;;;;4982692;28;20047;-76
2021/12/29 07:25:59;;;;;;;11.45;10.95;;;15.40;87.20;;;;;;4971950;28;20391;-76
2021/12/29 07:28:25;;;;;;;13.73;13.13;;;15.30;87.10;;;;;;4972937;28;20036;-76
2021/12/29 07:30:51;;;;;;;12.23;11.63;;;15.40;87.20;;;;;;4963204;28;20042;-76
2021/12/29 07:33:18;;;;;;;11.32;10.82;;;15.40;87.30;;;;;;4960278;28;20396;-76
2021/12/29 07:35:44;;;;;;;12.02;11.50;;;15.40;87.20;;;;;;4961962;28;20035;-76
2021/12/29 07:38:10;;;;;;;12.30;11.70;;;15.40;87.20;;;;;;4963287;28;20070;-76
2021/12/29 07:40:36;;;;;;;11.80;11.20;;;15.40;87.30;;;;;;4964128;28;20378;-76
2021/12/29 07:43:03;;;;;;;13.23;12.63;;;15.40;87.20;;;;;;4968134;28;20111;-77
2021/12/29 07:45:29;;;;;;;12.95;12.35;;;15.40;87.30;;;;;;4961085;28;20484;-79
2021/12/29 07:47:55;;;;;;;12.13;11.55;;;15.40;87.30;;;;;;4965878;28;20050;-78
2021/12/29 07:50:21;;;;;;;12.68;12.07;;;15.40;87.30;;;;;;4975180;28;20038;-78
2021/12/29 07:52:48;;;;;;;12.55;11.95;;;15.40;87.30;;;;;;4957487;28;20043;-79
2021/12/29 07:55:18;;;;;;;11.82;11.32;;;15.40;87.30;;;;;;4974179;28;20031;-79
2021/12/29 07:57:44;;;;;;;12.02;11.43;;;15.40;87.40;;;;;;4959437;28;20030;-79
2021/12/29 08:00:11;;;;;;;11.75;11.25;;;15.40;87.30;;;;;;4959152;28;20042;-78
2021/12/29 08:02:37;;;;;;;11.48;10.98;;;15.40;87.30;;;;;;4962644;28;20497;-79
2021/12/29 08:05:07;;;;;;;11.60;11.10;;;15.40;87.30;;;;;;4971643;28;20034;-77
2021/12/29 08:07:34;;;;;;;12.18;11.60;;;15.40;87.40;;;;;;4974090;28;20031;-79
2021/12/29 08:10:00;;;;;;;12.15;11.57;;;15.40;87.40;;;;;;4954830;29;20032;-79
2021/12/29 08:12:26;;;;;;;11.85;11.32;;;15.40;87.40;;;;;;4974046;28;20029;-79
2021/12/29 08:14:53;;;;;;;12.25;11.65;;;15.40;87.40;;;;;;4974706;28;20030;-79
2021/12/29 08:17:19;;;;;;;11.55;11.05;;;15.40;87.40;;;;;;4971076;28;20384;-80
2021/12/29 08:19:45;;;;;;;11.43;10.93;;;15.40;87.40;;;;;;4974279;28;20039;-79
2021/12/29 08:22:11;;;;;;;10.77;10.27;;;15.40;87.40;;;;;;4973309;28;20023;-80
2021/12/29 08:24:37;;;;;;;10.68;10.18;;;15.40;87.40;;;;;;4942490;28;20403;-80
2021/12/29 08:27:04;;;;;;;10.18;9.68;;;15.40;87.40;;;;;;4966062;28;20043;-80
2021/12/29 08:29:30;;;;;;;11.25;10.75;;;15.40;87.30;;;;;;4962778;28;20031;-81
2021/12/29 08:31:57;;;;;;;10.80;10.30;;;15.40;87.40;;;;;;4967158;28;20041;-82
2021/12/29 08:34:26;;;;;;;10.85;10.35;;;15.40;87.40;;;;;;4973904;28;20030;-80
2021/12/29 08:36:52;;;;;;;11.07;10.57;;;15.40;87.40;;;;;;4973601;28;20530;-81
2021/12/29 08:39:19;;;;;;;11.68;10.95;;;15.40;87.40;;;;;;4955630;28;20053;-81
2021/12/29 08:41:48;;;;;;;11.80;11.23;;;15.40;87.40;;;;;;4966701;28;20473;-82
2021/12/29 08:44:14;;;;;;;11.23;10.73;;;15.40;87.40;;;;;;4961869;28;20046;-82
2021/12/29 08:46:40;;;;;;;11.18;10.68;;;15.40;87.40;;;;;;4967037;28;20047;-81
2021/12/29 08:49:07;;;;;;;10.98;10.48;;;15.40;87.40;;;;;;4961015;28;20027;-81
2021/12/29 08:51:33;;;;;;;10.52;10.02;;;15.40;87.40;;;;;;4969496;28;20468;-82
2021/12/29 08:53:59;;;;;;;11.50;11.00;;;15.40;87.40;;;;;;4959461;28;20046;-80
2021/12/29 08:56:25;;;;;;;11.35;10.85;;;15.40;87.40;;;;;;4966229;28;20035;-81
2021/12/29 08:58:52;;;;;;;12.18;11.57;;;15.40;87.50;;;;;;4965830;28;20035;-80
2021/12/29 09:01:19;;;;;;;12.88;12.27;;;15.40;87.50;;;;;;4972167;28;20030;-81
2021/12/29 09:03:47;;;;;;;11.50;11.00;;;15.40;87.50;;;;;;4973238;28;20042;-80
2021/12/29 09:06:13;;;;;;;11.68;11.18;;;15.40;87.60;;;;;;4970536;28;20040;-78
2021/12/29 09:08:39;;;;;;;10.85;10.35;;;15.40;87.60;;;;;;4973912;28;20416;-80
2021/12/29 09:11:05;;;;;;;11.73;11.23;;;15.40;88.30;;;;;;4974651;28;20037;-85
2021/12/29 09:13:31;;;;;;;12.02;11.50;;;15.40;87.60;;;;;;4969278;28;20043;-81
2021/12/29 09:15:57;;;;;;;11.32;10.82;;;15.40;87.60;;;;;;4967193;28;20042;-81
2021/12/29 09:18:28;;;;;;;11.98;11.48;;;15.40;87.60;;;;;;4973286;28;20037;-81
2021/12/29 09:20:55;;;;;;;12.05;11.52;;;15.40;87.50;;;;;;4973318;28;20038;-81
2021/12/29 09:23:21;;;;;;;11.57;11.07;;;15.40;87.60;;;;;;4972753;28;20035;-81
2021/12/29 09:25:48;;;;;;;11.45;10.95;;;15.40;87.50;;;;;;4968318;28;20027;-82
2021/12/29 09:28:17;;;;;;;12.52;11.93;;;15.40;87.50;;;;;;4972971;28;20035;-82
2021/12/29 09:30:44;;;;;;;11.75;11.25;;;15.40;87.50;;;;;;4972424;28;20027;-83
2021/12/29 09:33:10;;;;;;;11.27;10.77;;;15.40;87.50;;;;;;4973072;28;20027;-83
2021/12/29 09:35:37;;;;;;;11.27;10.77;;;15.50;87.60;;;;;;4971100;28;20018;-82
2021/12/29 09:38:05;;;;;;;12.07;11.52;;;15.40;87.50;;;;;;4971149;28;20415;-82
2021/12/29 09:40:32;;;;;;;12.60;12.00;;;15.50;87.60;;;;;;4971791;28;20033;-83
2021/12/29 09:42:58;;;;;;;12.80;12.20;;;15.50;87.60;;;;;;4972341;28;20035;-83
2021/12/29 09:45:25;;;;;;;11.63;11.13;;;15.50;87.60;;;;;;4954164;28;20058;-79
2021/12/29 09:47:53;;;;;;;12.43;11.82;;;15.50;87.60;;;;;;4972633;28;20026;-79
2021/12/29 09:50:20;;;;;;;11.90;11.40;;;15.50;87.60;;;;;;4971021;28;20601;-80
2021/12/29 09:52:46;;;;;;;12.48;11.88;;;15.50;87.60;;;;;;4952644;28;20488;-81
2021/12/29 09:55:13;;;;;;;12.45;11.85;;;15.50;87.60;;;;;;4969849;28;20046;-78
2021/12/29 09:57:44;;;;;;;10.95;10.45;;;15.50;87.60;;;;;;4971057;28;20502;-78
2021/12/29 10:00:12;;;;;;;11.95;11.45;;;15.50;87.50;;;;;;4970631;28;20026;-78
2021/12/29 10:02:38;;;;;;;12.60;12.00;;;15.50;87.50;;;;;;4969602;28;20032;-77
2021/12/29 10:05:05;;;;;;;12.20;11.60;;;15.60;87.50;;;;;;4970727;28;20038;-77
2021/12/29 10:07:31;;;;;;;12.80;12.20;;;15.60;87.50;;;;;;4970159;28;20412;-77
2021/12/29 10:09:57;;;;;;;12.52;11.93;;;15.60;87.50;;;;;;4970681;28;20027;-77
2021/12/29 10:12:23;;;;;;;12.02;11.48;;;15.60;87.50;;;;;;4971856;28;20058;-77
2021/12/29 10:14:54;;;;;;;13.20;12.60;;;15.60;87.50;;;;;;4971275;28;20513;-77
2021/12/29 10:17:24;;;;;;;;;;;15.50;87.50;;;;;;4970174;28;20050;-77
2021/12/29 10:20:03;;;;;;;13.07;12.48;;;15.60;87.60;;;;;;4969663;28;19917;-78
2021/12/29 10:22:29;;;;;;;11.85;11.35;;;15.50;87.40;;;;;;4970552;28;20042;-77
2021/12/29 10:25:15;;;;;;;12.30;11.70;;;15.50;87.50;;;;;;4969588;28;20055;-78
2021/12/29 10:27:41;;;;;;;11.52;11.02;;;15.50;87.60;;;;;;4969672;28;20042;-78
2021/12/29 10:30:21;;;;;;;13.57;12.38;;;15.50;87.50;;;;;;4970068;28;20499;-78
2021/12/29 10:32:47;;;;;;;10.88;10.38;;;15.50;87.60;;;;;;4970853;28;20041;-77
2021/12/29 10:35:25;;;;;;;11.15;10.65;;;15.50;87.50;;;;;;4968410;28;20037;-79
2021/12/29 10:37:51;;;;;;;11.90;11.40;;;15.60;87.60;;;;;;4969072;28;20035;-77
2021/12/29 10:40:25;;;;;;;11.20;10.70;;;15.60;87.60;;;;;;4951326;28;20562;-78
2021/12/29 10:42:57;;;;;;;12.77;12.18;;;15.60;87.60;;;;;;4969377;28;20026;-79
2021/12/29 10:45:34;;;;;;;12.85;12.25;;;15.60;87.60;;;;;;4969336;28;20035;-78
2021/12/29 10:48:00;;;;;;;13.07;12.48;;;15.60;87.60;;;;;;4969023;28;20507;-78
2021/12/29 10:50:27;;;;;;;12.55;11.95;;;15.50;87.60;;;;;;4951851;28;20383;-78
2021/12/29 10:52:55;;;;;;;11.23;10.73;;;15.60;87.60;;;;;;4968975;28;20043;-80
2021/12/29 10:55:31;;;;;;;11.60;11.00;;;15.50;87.50;;;;;;4952940;28;20045;-79
2021/12/29 10:58:11;;;;;;;12.68;12.07;;;15.50;87.60;;;;;;4967887;28;20042;-79
2021/12/29 11:00:38;;;;;;;12.10;11.57;;;15.50;87.60;;;;;;4966425;28;20058;-78
2021/12/29 11:03:22;;;;;;;11.73;11.23;;;15.50;87.60;;;;;;4970222;28;21082;-80
2021/12/29 11:05:58;;;;;;;12.23;11.63;;;15.50;87.60;;;;;;4953552;28;20030;-76
2021/12/29 11:08:45;;;;;;;13.07;12.48;;;15.50;87.60;;;;;;4968063;28;20115;-78
2021/12/29 11:11:11;;;;;;;13.25;12.65;;;15.50;87.60;;;;;;4969071;28;20027;-80
2021/12/29 11:13:38;;;;;;;11.80;11.30;;;15.50;87.60;;;;;;4969306;28;20030;-81
2021/12/29 11:16:05;;;;;;;11.30;10.80;;;15.50;87.60;;;;;;4968595;28;20049;-81
2021/12/29 11:18:50;;;;;;;11.85;11.35;;;15.50;87.60;;;;;;4969675;28;20034;-81
2021/12/29 11:21:31;;;;;;;11.60;11.10;;;15.50;87.60;;;;;;4967130;28;20038;-82
2021/12/29 11:24:11;;;;;;;11.47;10.97;;;15.50;87.60;;;;;;4969327;28;20428;-82
2021/12/29 11:26:37;;;;;;;12.00;11.50;;;15.50;87.60;;;;;;4968477;28;20289;-81
2021/12/29 11:29:11;;;;;;;12.32;11.73;;;15.50;87.60;;;;;;4967750;28;20297;-81
2021/12/29 11:31:43;;;;;;;15.40;14.70;;;15.50;87.60;;;;;;4965026;28;20035;-81
2021/12/29 11:34:24;;;;;;;12.63;12.02;;;15.60;87.60;;;;;;4968094;28;20499;-80
2021/12/29 11:37:08;;;;;;;12.65;12.05;;;15.60;87.60;;;;;;4967772;28;20043;-80
2021/12/29 11:39:36;;;;;;;11.32;10.82;;;15.60;87.60;;;;;;4967792;28;20050;-78
2021/12/29 11:42:03;;;;;;;12.93;12.32;;;15.60;87.50;;;;;;4961729;28;20026;-77
2021/12/29 11:44:29;;;;;;;12.32;11.73;;;15.60;87.50;;;;;;4969289;28;20043;-78
2021/12/29 11:46:55;;;;;;;12.50;11.90;;;15.70;87.50;;;;;;4967771;28;20039;-78
2021/12/29 11:49:22;;;;;;;13.30;12.70;;;15.70;87.50;;;;;;4969090;28;20377;-78
2021/12/29 11:51:54;;;;;;;12.90;12.30;;;15.70;87.40;;;;;;4968606;28;20381;-79
2021/12/29 11:54:28;;;;;;;14.70;12.32;;;15.70;87.40;;;;;;4968981;28;20031;-80
2021/12/29 11:56:54;;;;;;;11.60;11.10;;;15.70;87.40;;;;;;4969685;28;20050;-76
2021/12/29 11:59:30;;;;;;;12.30;11.70;;;15.80;87.50;;;;;;4952667;28;20031;-76
2021/12/29 12:02:00;;;;;;;12.95;12.35;;;15.80;87.40;;;;;;4968251;28;20039;-76
2021/12/29 12:04:26;;;;;;;12.15;11.57;;;15.80;87.40;;;;;;4968385;28;20395;-77
2021/12/29 12:07:00;;;;;;;12.75;12.15;;;15.90;87.40;;;;;;4952287;28;20035;-77
2021/12/29 12:09:26;;;;;;;13.32;12.73;;;15.80;87.30;;;;;;4969532;28;20034;-76
2021/12/29 12:11:56;;;;;;;12.52;11.93;;;15.90;87.40;;;;;;4968364;28;20472;-77
2021/12/29 12:14:32;;;;;;;11.63;11.13;;;15.90;87.30;;;;;;4972172;28;20034;-77
2021/12/29 12:17:05;;;;;;;12.70;12.10;;;15.90;87.30;;;;;;4971768;28;20497;-77
2021/12/29 12:19:31;;;;;;;12.68;12.07;;;15.90;87.30;;;;;;4973265;28;20034;-77
2021/12/29 12:22:08;;;;;;;12.88;12.27;;;15.90;87.20;;;;;;4972490;28;20027;-77
2021/12/29 12:24:35;;;;;;;13.80;13.20;;;15.90;87.20;;;;;;4971868;28;20035;-76
2021/12/29 12:27:07;;;;;;;12.57;11.98;;;15.90;87.20;;;;;;4972793;28;20019;-76
2021/12/29 12:29:39;;;;;;;12.60;12.00;;;15.90;87.20;;;;;;4970920;28;20034;-77
2021/12/29 12:32:12;;;;;;;13.55;12.95;;;15.90;87.20;;;;;;4970446;28;20039;-77
2021/12/29 12:34:56;;;;;;;12.00;11.50;;;15.90;88.10;;;;;;4970149;28;20042;-77
2021/12/29 12:37:29;;;;;;;12.80;12.20;;;15.90;87.30;;;;;;4955188;28;20038;-77
2021/12/29 12:40:22;;;;;;;12.40;11.80;;;15.90;87.30;;;;;;4970215;28;20404;-78